Česky Dansk Deutsch English Español Suomi Français Magyar Italiano Nederlands norsk Polski Português svenska Türkçe

 

Het Weer

Bokoro (Tjaad)

11:00, 28 Abril 2016 (GMT)

NWNNE
WE
SWSSE
Home            
Bokoro Ndjamena Bol-Berim Maroua-Salak Am-Timan Sarh Pala Moundou Maiduguri Abeche Diffa Garoua Maine-Soroa N'Dele Geneina Yola Bossangoa Faya Birao Ngaoundere Meiganga Bouar Goure

Om een weerknop op uw website of weblog te plaatsen, copieer onderstaande code en plak die in uw pagina. In het eerste vakje staat HTML-code, in het tweede vakje UBB-code.


Add to Google

Details

Wind speed:3 bf, 10 kn, 5.1 m/s, 11.5 miles/h, 18.5 km/h
Wind direction:E, 100°
Visibilidad: 8000 m, 8.0 km, 26247 ft, 5.0 miles
Temperatura:41°C, 106°F
Sensación térmica:44°C, 111°F
Punto de rocío:18°C, 64°F
Presión atmosférica :1007 hPa, 755.3 mmHg, 29.74 inHg, 0.994 atm
Humedad relativa:26.5 %
METAR:FTTK 281100Z 10010KT 8000 NSC 41/18 Q1007 NOSIG

Snelkoppelingen

Actuele weersinformatie van de hele wereld. Voeg locaties toe met het plus (+) symbool. Deze snelkoppelingen kunnen worden toegevoegd aan Google.

Lid van de Technetium groep

website free tracking
StatCounter NetStat W3C Validator

26-04-2018 07:28:14
astro.technetium.be money.technetium.be phote.technetium.be tafeltennistafel.technetium.be www.ligfiets.net